Time;durP1;ratioP1;P1;durP2;ratioP2;P2;SDS_P1;SDS_P2;PMS_P1;PMS_P2;Temp;Humidity;BMP_temperature;BMP_pressure;BME280_temperature;BME280_humidity;BME280_pressure;Samples;Min_cycle;Max_cycle;Signal;HPM_P1;HPM_P2
2023/08/18 00:01:31;;;;;;;9.23;6.43;;;;;;;;;;5055642;28;20742;-35
2023/08/18 00:03:57;;;;;;;17.48;6.75;;;;;;;;;;5055316;28;20025;-35
2023/08/18 00:06:22;;;;;;;8.15;6.63;;;;;;;;;;5054872;28;20021;-35
2023/08/18 00:08:47;;;;;;;9.43;6.57;;;;;;;;;;5054786;28;20024;-34
2023/08/18 00:11:12;;;;;;;8.52;6.53;;;;;;;;;;5054529;28;20296;-34
2023/08/18 00:13:38;;;;;;;10.15;7.00;;;;;;;;;;5055069;28;20048;-35
2023/08/18 00:16:03;;;;;;;10.00;6.90;;;;;;;;;;5054722;28;20025;-34
2023/08/18 00:18:29;;;;;;;11.25;7.10;;;;;;;;;;5054649;28;20053;-34
2023/08/18 00:20:54;;;;;;;8.45;7.13;;;;;;;;;;5055060;28;20017;-34
2023/08/18 00:23:19;;;;;;;9.60;7.00;;;;;;;;;;5054994;28;20021;-34
2023/08/18 00:25:44;;;;;;;8.70;6.97;;;;;;;;;;5055291;28;20251;-35
2023/08/18 00:28:09;;;;;;;10.37;7.17;;;;;;;;;;5055029;28;20252;-35
2023/08/18 00:30:35;;;;;;;12.05;7.43;;;;;;;;;;5055440;28;20100;-35
2023/08/18 00:33:00;;;;;;;9.25;7.13;;;;;;;;;;5054806;28;20017;-35
2023/08/18 00:35:26;;;;;;;10.65;7.40;;;;;;;;;;5054203;28;20101;-35
2023/08/18 00:37:51;;;;;;;11.18;7.40;;;;;;;;;;5055081;28;20037;-34
2023/08/18 00:40:17;;;;;;;9.68;7.55;;;;;;;;;;5054953;28;20431;-35
2023/08/18 00:42:42;;;;;;;9.32;7.25;;;;;;;;;;5054700;28;20025;-34
2023/08/18 00:45:07;;;;;;;9.07;7.50;;;;;;;;;;5054666;28;20056;-34
2023/08/18 00:47:33;;;;;;;10.63;7.50;;;;;;;;;;5054660;28;20024;-36
2023/08/18 00:49:59;;;;;;;10.85;7.85;;;;;;;;;;5054804;28;20035;-34
2023/08/18 00:52:25;;;;;;;10.70;7.35;;;;;;;;;;5054470;28;20017;-34
2023/08/18 00:54:51;;;;;;;12.77;7.95;;;;;;;;;;5054981;28;20024;-34
2023/08/18 00:57:16;;;;;;;11.13;8.05;;;;;;;;;;5054745;28;20424;-34
2023/08/18 00:59:43;;;;;;;11.27;8.25;;;;;;;;;;5055107;28;20107;-34
2023/08/18 01:02:08;;;;;;;10.40;7.82;;;;;;;;;;5054294;28;20024;-34
2023/08/18 01:04:33;;;;;;;10.90;7.40;;;;;;;;;;5054771;28;20063;-34
2023/08/18 01:06:59;;;;;;;11.95;8.15;;;;;;;;;;5054347;28;20247;-34
2023/08/18 01:09:24;;;;;;;12.18;8.48;;;;;;;;;;5053316;28;20047;-33
2023/08/18 01:11:55;;;;;;;12.30;8.53;;;;;;;;;;5053999;28;20052;-34
2023/08/18 01:14:20;;;;;;;11.70;8.20;;;;;;;;;;5054296;28;20251;-34
2023/08/18 01:16:48;;;;;;;10.47;8.03;;;;;;;;;;5054467;28;20025;-33
2023/08/18 01:19:14;;;;;;;14.13;8.35;;;;;;;;;;5054150;28;20449;-34
2023/08/18 01:21:40;;;;;;;11.60;8.63;;;;;;;;;;5054241;28;20514;-34
2023/08/18 01:24:06;;;;;;;12.20;8.07;;;;;;;;;;5053945;28;20017;-34
2023/08/18 01:26:31;;;;;;;11.55;8.15;;;;;;;;;;5053816;28;20024;-34
2023/08/18 01:28:56;;;;;;;10.20;8.30;;;;;;;;;;5053842;28;20016;-34
2023/08/18 01:31:25;;;;;;;12.17;8.63;;;;;;;;;;5053656;28;20021;-34
2023/08/18 01:33:54;;;;;;;12.93;8.65;;;;;;;;;;5054050;28;20335;-34
2023/08/18 01:36:21;;;;;;;11.80;8.32;;;;;;;;;;5053903;28;20414;-34
2023/08/18 01:38:47;;;;;;;11.40;8.45;;;;;;;;;;5053600;28;20067;-35
2023/08/18 01:41:13;;;;;;;11.00;8.32;;;;;;;;;;5053907;28;20086;-34
2023/08/18 01:43:38;;;;;;;13.02;8.60;;;;;;;;;;5053552;28;20456;-34
2023/08/18 01:46:04;;;;;;;13.83;9.20;;;;;;;;;;5053879;28;20113;-35
2023/08/18 01:48:29;;;;;;;11.37;8.47;;;;;;;;;;5053527;28;20797;-34
2023/08/18 01:50:54;;;;;;;11.80;8.50;;;;;;;;;;5054074;28;20013;-34
2023/08/18 01:53:19;;;;;;;13.82;8.50;;;;;;;;;;5053986;28;20264;-35
2023/08/18 01:55:45;;;;;;;11.90;8.63;;;;;;;;;;5053435;28;20020;-34
2023/08/18 01:58:10;;;;;;;12.57;8.40;;;;;;;;;;5053395;28;20024;-35
2023/08/18 02:00:35;;;;;;;12.32;8.93;;;;;;;;;;5053554;28;20282;-35
2023/08/18 02:03:00;;;;;;;12.30;8.47;;;;;;;;;;5053297;28;20013;-35
2023/08/18 02:05:25;;;;;;;14.90;8.20;;;;;;;;;;5053872;28;20247;-35
2023/08/18 02:07:51;;;;;;;12.70;8.68;;;;;;;;;;5053272;28;20352;-35
2023/08/18 02:10:16;;;;;;;11.97;8.30;;;;;;;;;;5053342;28;20068;-35
2023/08/18 02:12:41;;;;;;;11.60;8.35;;;;;;;;;;5053131;28;20645;-35
2023/08/18 02:15:07;;;;;;;16.83;8.60;;;;;;;;;;5053514;28;20021;-35
2023/08/18 02:17:32;;;;;;;11.73;8.38;;;;;;;;;;5053111;28;20267;-35
2023/08/18 02:19:58;;;;;;;12.52;8.68;;;;;;;;;;5055346;28;20021;-35
2023/08/18 02:22:24;;;;;;;13.35;8.13;;;;;;;;;;5057607;28;20570;-34
2023/08/18 02:24:49;;;;;;;12.20;8.32;;;;;;;;;;5057308;28;20019;-34
2023/08/18 02:27:14;;;;;;;12.73;8.38;;;;;;;;;;5057742;28;20017;-35
2023/08/18 02:29:40;;;;;;;11.67;8.40;;;;;;;;;;5057419;28;20463;-35
2023/08/18 02:32:05;;;;;;;17.13;9.10;;;;;;;;;;5057169;28;20250;-34
2023/08/18 02:34:30;;;;;;;14.27;8.57;;;;;;;;;;5057681;28;20251;-35
2023/08/18 02:36:55;;;;;;;15.53;9.10;;;;;;;;;;5057344;28;20259;-34
2023/08/18 02:39:20;;;;;;;14.53;8.50;;;;;;;;;;5057537;28;20100;-33
2023/08/18 02:41:47;;;;;;;11.55;8.60;;;;;;;;;;5057194;28;20407;-33
2023/08/18 02:44:12;;;;;;;12.30;8.85;;;;;;;;;;5057160;28;20066;-34
2023/08/18 02:46:37;;;;;;;16.57;8.67;;;;;;;;;;5057179;28;20017;-34
2023/08/18 02:49:02;;;;;;;11.97;8.70;;;;;;;;;;5056860;28;20718;-34
2023/08/18 02:51:28;;;;;;;15.93;8.33;;;;;;;;;;5057313;28;20116;-34
2023/08/18 02:53:53;;;;;;;11.87;8.40;;;;;;;;;;5057300;28;20283;-35
2023/08/18 02:56:18;;;;;;;12.88;8.48;;;;;;;;;;5057002;28;20059;-34
2023/08/18 02:58:43;;;;;;;11.65;8.82;;;;;;;;;;5056816;28;20025;-34
2023/08/18 03:01:08;;;;;;;15.17;8.80;;;;;;;;;;5056583;28;20024;-34
2023/08/18 03:03:34;;;;;;;11.30;8.60;;;;;;;;;;5057071;28;20308;-34
2023/08/18 03:06:03;;;;;;;14.75;9.18;;;;;;;;;;5056579;28;20070;-34
2023/08/18 03:08:29;;;;;;;12.73;9.45;;;;;;;;;;5057236;28;20082;-34
2023/08/18 03:10:58;;;;;;;14.48;9.35;;;;;;;;;;5056520;28;20456;-34
2023/08/18 03:13:23;;;;;;;12.23;9.35;;;;;;;;;;5056677;28;20031;-35
2023/08/18 03:15:48;;;;;;;12.15;9.00;;;;;;;;;;5056639;28;20021;-35
2023/08/18 03:18:13;;;;;;;14.03;9.13;;;;;;;;;;5056262;28;20075;-35
2023/08/18 03:20:39;;;;;;;13.83;9.17;;;;;;;;;;5056675;28;20287;-34
2023/08/18 03:23:04;;;;;;;12.70;9.47;;;;;;;;;;5056716;28;20111;-33
2023/08/18 03:25:29;;;;;;;17.33;9.70;;;;;;;;;;5056195;28;20247;-35
2023/08/18 03:27:54;;;;;;;16.43;9.23;;;;;;;;;;5056337;28;20274;-35
2023/08/18 03:30:19;;;;;;;12.40;9.20;;;;;;;;;;5055600;28;20324;-35
2023/08/18 03:32:44;;;;;;;15.55;9.05;;;;;;;;;;5055534;28;20036;-35
2023/08/18 03:35:10;;;;;;;13.65;9.30;;;;;;;;;;5056143;28;20028;-35
2023/08/18 03:37:35;;;;;;;13.35;9.20;;;;;;;;;;5056169;28;20032;-35
2023/08/18 03:40:03;;;;;;;18.23;9.10;;;;;;;;;;5055871;28;20024;-35
2023/08/18 03:42:28;;;;;;;15.73;8.82;;;;;;;;;;5056066;28;20266;-35
2023/08/18 03:44:53;;;;;;;14.47;9.00;;;;;;;;;;5055792;28;20021;-35
2023/08/18 03:47:18;;;;;;;13.70;9.33;;;;;;;;;;5056294;28;20239;-34
2023/08/18 03:49:44;;;;;;;16.75;9.18;;;;;;;;;;5055952;28;20260;-34
2023/08/18 03:52:09;;;;;;;14.77;9.65;;;;;;;;;;5055896;28;20192;-35
2023/08/18 03:54:34;;;;;;;13.77;9.15;;;;;;;;;;5055858;28;20021;-34
2023/08/18 03:56:59;;;;;;;14.73;9.63;;;;;;;;;;5055819;28;20032;-35
2023/08/18 03:59:24;;;;;;;14.17;9.17;;;;;;;;;;5055431;28;20112;-35
2023/08/18 04:01:50;;;;;;;17.87;8.90;;;;;;;;;;5055784;28;20013;-35
2023/08/18 04:04:15;;;;;;;15.20;9.40;;;;;;;;;;5055713;28;20255;-35
2023/08/18 04:06:40;;;;;;;13.43;9.37;;;;;;;;;;5055924;28;20255;-35
2023/08/18 04:09:06;;;;;;;15.80;9.57;;;;;;;;;;5055905;28;20294;-35
2023/08/18 04:11:33;;;;;;;15.23;9.73;;;;;;;;;;5055753;28;20287;-35
2023/08/18 04:13:58;;;;;;;15.27;9.95;;;;;;;;;;5055550;28;20375;-36
2023/08/18 04:16:23;;;;;;;15.53;9.73;;;;;;;;;;5055291;28;20021;-36
2023/08/18 04:18:48;;;;;;;15.23;9.95;;;;;;;;;;5055423;28;20279;-36
2023/08/18 04:21:13;;;;;;;19.83;9.93;;;;;;;;;;5055080;28;20028;-33
2023/08/18 04:23:39;;;;;;;13.93;9.77;;;;;;;;;;5055681;28;20112;-35
2023/08/18 04:26:04;;;;;;;16.00;9.87;;;;;;;;;;5055317;28;20025;-35
2023/08/18 04:28:29;;;;;;;14.00;10.20;;;;;;;;;;5055254;28;20243;-35
2023/08/18 04:30:55;;;;;;;12.55;9.88;;;;;;;;;;5055138;28;20017;-35
2023/08/18 04:33:20;;;;;;;14.40;9.90;;;;;;;;;;5054916;28;20471;-35
2023/08/18 04:35:45;;;;;;;15.55;10.35;;;;;;;;;;5055050;28;20252;-35
2023/08/18 04:38:12;;;;;;;17.17;10.67;;;;;;;;;;5054785;28;20418;-35
2023/08/18 04:40:37;;;;;;;17.33;10.60;;;;;;;;;;5054490;28;20279;-35
2023/08/18 04:43:02;;;;;;;20.90;11.38;;;;;;;;;;5054388;28;20021;-35
2023/08/18 04:45:27;;;;;;;17.67;10.80;;;;;;;;;;5054637;28;20017;-35
2023/08/18 04:47:53;;;;;;;16.80;10.77;;;;;;;;;;5055147;28;20024;-35
2023/08/18 04:50:18;;;;;;;16.67;10.30;;;;;;;;;;5054529;28;20031;-35
2023/08/18 04:52:43;;;;;;;17.67;11.17;;;;;;;;;;5054539;28;20025;-35
2023/08/18 04:55:08;;;;;;;16.67;11.20;;;;;;;;;;5054712;28;20787;-34
2023/08/18 04:57:33;;;;;;;16.03;10.93;;;;;;;;;;5054932;28;20263;-35
2023/08/18 04:59:58;;;;;;;13.77;10.33;;;;;;;;;;5054351;28;20378;-35
2023/08/18 05:02:26;;;;;;;18.70;10.83;;;;;;;;;;5054680;28;20013;-35
2023/08/18 05:04:51;;;;;;;21.08;10.73;;;;;;;;;;5054406;28;20013;-35
2023/08/18 05:07:17;;;;;;;20.00;11.03;;;;;;;;;;5054520;28;20501;-35
2023/08/18 05:09:42;;;;;;;17.50;10.50;;;;;;;;;;5054439;28;20255;-34
2023/08/18 05:12:08;;;;;;;17.57;10.37;;;;;;;;;;5054080;28;20492;-35
2023/08/18 05:14:33;;;;;;;15.38;10.63;;;;;;;;;;5054340;28;20340;-35
2023/08/18 05:16:58;;;;;;;19.55;11.25;;;;;;;;;;5054319;28;20367;-35
2023/08/18 05:19:23;;;;;;;16.40;10.52;;;;;;;;;;5053949;28;20032;-34
2023/08/18 05:21:49;;;;;;;16.23;11.00;;;;;;;;;;5053949;28;20116;-35
2023/08/18 05:24:14;;;;;;;14.10;10.82;;;;;;;;;;5054426;28;20251;-35
2023/08/18 05:26:39;;;;;;;25.57;10.73;;;;;;;;;;5053928;28;20456;-34
2023/08/18 05:29:04;;;;;;;19.80;11.30;;;;;;;;;;5053902;28;20056;-35
2023/08/18 05:31:30;;;;;;;16.50;11.20;;;;;;;;;;5053682;28;20302;-35
2023/08/18 05:33:55;;;;;;;17.17;11.30;;;;;;;;;;5054530;28;20259;-35
2023/08/18 05:36:21;;;;;;;17.47;11.27;;;;;;;;;;5053959;28;20099;-35
2023/08/18 05:38:47;;;;;;;16.58;10.80;;;;;;;;;;5053649;28;20052;-35
2023/08/18 05:41:13;;;;;;;15.40;10.15;;;;;;;;;;5054365;28;20017;-35
2023/08/18 05:43:38;;;;;;;17.95;10.85;;;;;;;;;;5053555;28;20021;-35
2023/08/18 05:46:04;;;;;;;19.83;11.40;;;;;;;;;;5053810;28;20009;-35
2023/08/18 05:48:30;;;;;;;19.52;11.35;;;;;;;;;;5053788;28;20024;-35
2023/08/18 05:50:55;;;;;;;18.42;11.00;;;;;;;;;;5053351;28;20009;-35
2023/08/18 05:53:21;;;;;;;20.15;11.57;;;;;;;;;;5053305;28;20028;-35
2023/08/18 05:55:46;;;;;;;20.20;11.60;;;;;;;;;;5053191;28;20021;-34
2023/08/18 05:58:12;;;;;;;16.27;11.07;;;;;;;;;;5053588;28;20260;-35
2023/08/18 06:00:37;;;;;;;18.58;11.45;;;;;;;;;;5053266;28;20420;-35
2023/08/18 06:03:02;;;;;;;21.15;11.70;;;;;;;;;;5052901;28;20452;-35
2023/08/18 06:05:28;;;;;;;17.95;11.30;;;;;;;;;;5053846;28;20017;-35
2023/08/18 06:07:54;;;;;;;19.98;11.60;;;;;;;;;;5053560;28;20098;-34
2023/08/18 06:10:19;;;;;;;18.80;11.45;;;;;;;;;;5053284;28;20130;-36
2023/08/18 06:12:44;;;;;;;16.15;10.63;;;;;;;;;;5053103;28;20403;-35
2023/08/18 06:15:10;;;;;;;18.27;11.10;;;;;;;;;;5053474;28;20021;-34
2023/08/18 06:17:36;;;;;;;16.50;11.35;;;;;;;;;;5053572;28;20371;-35
2023/08/18 06:20:01;;;;;;;20.13;11.23;;;;;;;;;;5053103;28;20029;-35
2023/08/18 06:22:26;;;;;;;15.33;10.77;;;;;;;;;;5053425;28;20013;-35
2023/08/18 06:24:52;;;;;;;19.27;10.88;;;;;;;;;;5053361;28;20021;-35
2023/08/18 06:27:17;;;;;;;15.77;11.07;;;;;;;;;;5053075;28;20052;-35
2023/08/18 06:29:42;;;;;;;17.05;10.70;;;;;;;;;;5053240;28;20256;-35
2023/08/18 06:32:07;;;;;;;15.30;10.73;;;;;;;;;;5053894;28;20452;-35
2023/08/18 06:34:32;;;;;;;16.30;10.65;;;;;;;;;;5053263;28;20017;-35
2023/08/18 06:36:58;;;;;;;16.27;10.47;;;;;;;;;;5053269;28;20070;-36
2023/08/18 06:39:23;;;;;;;17.17;10.00;;;;;;;;;;5053453;28;20319;-35
2023/08/18 06:41:48;;;;;;;15.02;10.00;;;;;;;;;;5053185;28;20040;-35
2023/08/18 06:44:13;;;;;;;16.27;9.80;;;;;;;;;;5053543;28;20025;-35
2023/08/18 06:46:39;;;;;;;16.20;9.87;;;;;;;;;;5051697;28;20013;-35
2023/08/18 06:49:04;;;;;;;14.70;9.73;;;;;;;;;;5052893;28;20507;-35
2023/08/18 06:51:29;;;;;;;13.35;9.18;;;;;;;;;;5053913;28;20086;-35
2023/08/18 06:53:54;;;;;;;13.67;9.63;;;;;;;;;;5053408;28;20104;-35
2023/08/18 06:56:20;;;;;;;16.53;9.80;;;;;;;;;;5051938;28;20075;-34
2023/08/18 06:58:45;;;;;;;13.25;8.98;;;;;;;;;;5053237;28;20291;-35
2023/08/18 07:01:10;;;;;;;15.37;9.50;;;;;;;;;;5052799;28;20096;-35
2023/08/18 07:03:35;;;;;;;14.03;8.97;;;;;;;;;;5053318;28;20328;-35
2023/08/18 07:06:00;;;;;;;15.30;9.10;;;;;;;;;;5054830;28;20371;-35
2023/08/18 07:08:26;;;;;;;14.73;9.15;;;;;;;;;;5056812;28;20013;-34
2023/08/18 07:10:51;;;;;;;12.77;7.88;;;;;;;;;;5057319;28;20028;-36
2023/08/18 07:13:16;;;;;;;12.50;7.30;;;;;;;;;;5056403;28;20061;-36
2023/08/18 07:15:42;;;;;;;13.53;7.77;;;;;;;;;;5056269;28;20353;-35
2023/08/18 07:18:07;;;;;;;10.03;8.10;;;;;;;;;;5056583;28;20255;-35
2023/08/18 07:20:32;;;;;;;13.98;8.15;;;;;;;;;;5056427;28;20491;-35
2023/08/18 07:22:57;;;;;;;12.60;8.10;;;;;;;;;;5056687;28;20510;-34
2023/08/18 07:25:23;;;;;;;13.80;8.53;;;;;;;;;;5056174;28;20602;-35
2023/08/18 07:27:48;;;;;;;13.95;8.60;;;;;;;;;;5056343;28;20045;-35
2023/08/18 07:30:13;;;;;;;13.60;8.48;;;;;;;;;;5056346;28;20095;-35
2023/08/18 07:32:39;;;;;;;13.13;8.53;;;;;;;;;;5056482;28;20021;-34
2023/08/18 07:35:08;;;;;;;12.90;8.90;;;;;;;;;;5056790;28;20252;-34
2023/08/18 07:37:37;;;;;;;13.35;9.05;;;;;;;;;;5056207;28;20400;-35
2023/08/18 07:40:05;;;;;;;17.73;8.82;;;;;;;;;;5055747;28;20021;-35
2023/08/18 07:42:30;;;;;;;13.93;9.75;;;;;;;;;;5056200;28;20486;-35
2023/08/18 07:44:56;;;;;;;15.73;9.52;;;;;;;;;;5056114;28;20017;-35
2023/08/18 07:47:21;;;;;;;13.68;9.20;;;;;;;;;;5056005;28;20456;-34
2023/08/18 07:49:46;;;;;;;14.63;9.32;;;;;;;;;;5056001;28;20039;-35
2023/08/18 07:52:11;;;;;;;14.83;9.30;;;;;;;;;;5055904;28;20105;-34
2023/08/18 07:54:36;;;;;;;17.97;9.10;;;;;;;;;;5055903;28;20021;-35
2023/08/18 07:57:03;;;;;;;14.30;8.87;;;;;;;;;;5056152;28;20025;-35
2023/08/18 07:59:28;;;;;;;17.60;9.52;;;;;;;;;;5055478;28;20108;-34
2023/08/18 08:01:54;;;;;;;16.40;9.20;;;;;;;;;;5055547;28;20044;-35
2023/08/18 08:04:19;;;;;;;16.35;9.50;;;;;;;;;;5056237;28;20028;-34
2023/08/18 08:06:44;;;;;;;15.37;9.30;;;;;;;;;;5055447;28;20005;-35
2023/08/18 08:09:09;;;;;;;14.03;9.10;;;;;;;;;;5055396;28;20463;-35
2023/08/18 08:11:34;;;;;;;17.47;9.87;;;;;;;;;;5055156;28;20045;-35
2023/08/18 08:14:01;;;;;;;13.83;9.40;;;;;;;;;;5055625;28;20290;-35
2023/08/18 08:16:26;;;;;;;18.67;9.55;;;;;;;;;;5055394;28;20070;-35
2023/08/18 08:18:52;;;;;;;12.80;8.97;;;;;;;;;;5054651;28;20468;-35
2023/08/18 08:21:17;;;;;;;15.35;9.02;;;;;;;;;;5055277;28;20263;-35
2023/08/18 08:23:42;;;;;;;13.07;9.20;;;;;;;;;;5055160;28;20508;-35
2023/08/18 08:26:07;;;;;;;13.50;8.60;;;;;;;;;;5055313;28;20067;-35
2023/08/18 08:28:33;;;;;;;15.20;8.52;;;;;;;;;;5055752;28;20411;-35
2023/08/18 08:30:58;;;;;;;17.10;9.00;;;;;;;;;;5055139;28;20021;-34
2023/08/18 08:33:23;;;;;;;18.60;9.20;;;;;;;;;;5054989;28;20028;-35
2023/08/18 08:35:48;;;;;;;12.80;8.70;;;;;;;;;;5055376;28;20096;-35
2023/08/18 08:38:13;;;;;;;15.53;8.77;;;;;;;;;;5054819;28;20501;-35
2023/08/18 08:40:40;;;;;;;15.20;9.10;;;;;;;;;;5053395;28;20062;-35
2023/08/18 08:43:06;;;;;;;15.93;9.40;;;;;;;;;;5054714;28;20260;-35
2023/08/18 08:45:32;;;;;;;16.57;9.63;;;;;;;;;;5054978;28;20028;-35
2023/08/18 08:48:00;;;;;;;16.02;9.70;;;;;;;;;;5054795;28;20438;-36
2023/08/18 08:50:27;;;;;;;16.42;9.88;;;;;;;;;;5054445;28;20032;-36
2023/08/18 08:52:55;;;;;;;16.38;9.27;;;;;;;;;;5054805;28;20487;-35
2023/08/18 08:55:23;;;;;;;15.32;8.73;;;;;;;;;;5054514;28;20458;-35
2023/08/18 08:57:48;;;;;;;14.85;9.50;;;;;;;;;;5054464;28;20531;-35
2023/08/18 09:00:16;;;;;;;14.93;9.53;;;;;;;;;;5036989;28;20095;-35
2023/08/18 09:02:43;;;;;;;14.52;9.52;;;;;;;;;;5054909;28;20694;-35
2023/08/18 09:05:09;;;;;;;15.30;9.65;;;;;;;;;;5054272;28;20025;-34
2023/08/18 09:07:34;;;;;;;15.32;10.20;;;;;;;;;;5054381;28;20079;-35
2023/08/18 09:10:00;;;;;;;14.18;9.40;;;;;;;;;;5054133;28;20096;-36
2023/08/18 09:12:27;;;;;;;16.03;9.23;;;;;;;;;;5054129;28;20048;-35
2023/08/18 09:14:52;;;;;;;17.48;9.50;;;;;;;;;;5054012;28;20048;-35
2023/08/18 09:17:18;;;;;;;14.70;9.35;;;;;;;;;;5052785;28;20017;-35
2023/08/18 09:19:43;;;;;;;16.52;10.20;;;;;;;;;;5054137;28;20478;-36
2023/08/18 09:22:08;;;;;;;16.70;9.43;;;;;;;;;;5054224;28;20013;-35
2023/08/18 09:24:33;;;;;;;14.02;9.25;;;;;;;;;;5054156;28;20020;-36
2023/08/18 09:27:08;;;;;;;17.20;9.80;;;;;;;;;;5054979;28;20043;-34
2023/08/18 09:29:34;;;;;;;15.25;9.52;;;;;;;;;;5051258;28;20543;-34
2023/08/18 09:31:59;;;;;;;16.10;9.77;;;;;;;;;;5051681;28;20017;-35
2023/08/18 09:34:25;;;;;;;18.53;10.27;;;;;;;;;;5053725;28;20109;-35
2023/08/18 09:36:51;;;;;;;16.08;10.48;;;;;;;;;;5053985;28;20259;-35
2023/08/18 09:39:16;;;;;;;16.65;10.57;;;;;;;;;;5053894;28;20039;-35
2023/08/18 09:41:44;;;;;;;19.87;10.80;;;;;;;;;;5053707;28;20017;-36
2023/08/18 09:44:09;;;;;;;13.60;9.80;;;;;;;;;;5053621;28;20021;-35
2023/08/18 09:46:36;;;;;;;17.10;10.30;;;;;;;;;;5053626;28;20502;-35
2023/08/18 09:49:01;;;;;;;16.92;10.13;;;;;;;;;;5053806;28;20020;-35
2023/08/18 09:51:27;;;;;;;15.40;10.15;;;;;;;;;;5054059;28;20071;-35
2023/08/18 09:53:57;;;;;;;21.10;10.32;;;;;;;;;;5053483;28;20375;-35
2023/08/18 09:56:28;;;;;;;14.57;10.43;;;;;;;;;;5053625;28;20103;-35
2023/08/18 09:59:01;;;;;;;14.52;9.90;;;;;;;;;;5053632;28;20053;-35
2023/08/18 10:01:27;;;;;;;17.67;10.05;;;;;;;;;;5053628;28;20463;-35
2023/08/18 10:03:53;;;;;;;14.05;10.10;;;;;;;;;;5053615;28;20048;-35
2023/08/18 10:06:18;;;;;;;15.80;10.15;;;;;;;;;;5053425;28;20053;-36
2023/08/18 10:08:44;;;;;;;17.77;10.57;;;;;;;;;;5053251;28;20021;-35
2023/08/18 10:11:09;;;;;;;15.63;10.27;;;;;;;;;;5053397;28;20037;-36
2023/08/18 10:13:34;;;;;;;16.85;10.05;;;;;;;;;;5052836;28;20348;-36
2023/08/18 10:16:01;;;;;;;16.73;10.63;;;;;;;;;;5053275;28;20486;-35
2023/08/18 10:18:27;;;;;;;17.58;11.13;;;;;;;;;;5053499;28;20029;-35
2023/08/18 10:20:53;;;;;;;17.92;10.95;;;;;;;;;;5053378;28;20025;-34
2023/08/18 10:23:18;;;;;;;16.45;10.88;;;;;;;;;;5053519;28;20468;-35
2023/08/18 10:25:45;;;;;;;15.35;10.65;;;;;;;;;;5053026;28;20024;-35
2023/08/18 10:28:13;;;;;;;15.80;10.30;;;;;;;;;;5053148;28;20025;-35
2023/08/18 10:30:38;;;;;;;15.35;10.48;;;;;;;;;;5053445;28;20032;-35
2023/08/18 10:33:09;;;;;;;14.13;9.60;;;;;;;;;;5051777;28;20021;-35
2023/08/18 10:35:37;;;;;;;15.57;10.93;;;;;;;;;;5053501;28;20043;-34
2023/08/18 10:38:04;;;;;;;17.73;11.02;;;;;;;;;;5052955;28;20025;-35
2023/08/18 10:40:33;;;;;;;16.08;10.02;;;;;;;;;;5054238;28;20021;-35
2023/08/18 10:43:02;;;;;;;14.75;10.60;;;;;;;;;;5057257;28;20017;-35
2023/08/18 10:45:28;;;;;;;16.45;10.95;;;;;;;;;;5056886;28;20403;-35
2023/08/18 10:47:57;;;;;;;17.52;10.60;;;;;;;;;;5057667;28;20092;-36
2023/08/18 10:50:23;;;;;;;16.45;10.63;;;;;;;;;;5057080;28;20025;-36
2023/08/18 10:52:50;;;;;;;17.02;10.70;;;;;;;;;;5056748;28;20087;-35
2023/08/18 10:55:15;;;;;;;15.40;10.70;;;;;;;;;;5056728;28;20063;-35
2023/08/18 10:57:42;;;;;;;15.30;10.00;;;;;;;;;;5056717;28;20033;-35
2023/08/18 11:00:11;;;;;;;17.55;10.40;;;;;;;;;;5056591;28;20105;-34
2023/08/18 11:02:36;;;;;;;15.25;10.30;;;;;;;;;;5056646;28;20028;-34
2023/08/18 11:05:02;;;;;;;24.05;10.55;;;;;;;;;;5056452;28;20017;-35
2023/08/18 11:07:28;;;;;;;15.95;10.98;;;;;;;;;;5056740;28;20028;-34
2023/08/18 11:09:53;;;;;;;15.27;9.90;;;;;;;;;;5056413;28;20094;-35
2023/08/18 11:12:18;;;;;;;16.40;11.10;;;;;;;;;;5056484;28;20041;-35
2023/08/18 11:14:43;;;;;;;16.60;10.63;;;;;;;;;;5057162;28;20020;-35
2023/08/18 11:17:10;;;;;;;15.32;10.27;;;;;;;;;;5056561;28;20490;-36
2023/08/18 11:19:35;;;;;;;15.30;9.95;;;;;;;;;;5056170;28;20100;-35
2023/08/18 11:22:00;;;;;;;14.03;9.63;;;;;;;;;;5056209;28;20479;-35
2023/08/18 11:24:26;;;;;;;14.52;10.07;;;;;;;;;;5056270;28;20079;-35
2023/08/18 11:26:51;;;;;;;16.15;10.60;;;;;;;;;;5057035;28;20017;-35
2023/08/18 11:29:17;;;;;;;18.85;10.35;;;;;;;;;;5056110;28;20013;-35
2023/08/18 11:31:45;;;;;;;12.73;8.95;;;;;;;;;;5055975;28;20055;-36
2023/08/18 11:34:10;;;;;;;15.52;9.00;;;;;;;;;;5056176;28;20020;-35
2023/08/18 11:36:35;;;;;;;17.45;10.10;;;;;;;;;;5056518;28;20070;-35
2023/08/18 11:39:02;;;;;;;14.57;10.63;;;;;;;;;;5055876;28;20021;-35
2023/08/18 11:41:35;;;;;;;17.60;10.10;;;;;;;;;;5056160;28;20040;-35
2023/08/18 11:44:00;;;;;;;;;;;;;;;;;;5056125;28;20031;-36
2023/08/18 11:46:25;;;;;;;16.73;10.52;;;;;;;;;;5055732;28;19905;-36
2023/08/18 11:48:51;;;;;;;15.20;10.55;;;;;;;;;;5055920;28;20021;-36
2023/08/18 11:51:17;;;;;;;14.68;9.65;;;;;;;;;;5055479;28;20025;-36
2023/08/18 11:53:42;;;;;;;12.82;9.25;;;;;;;;;;5055127;28;20013;-36
2023/08/18 11:56:08;;;;;;;16.73;9.63;;;;;;;;;;5055686;28;20028;-36
2023/08/18 11:58:33;;;;;;;15.87;10.17;;;;;;;;;;5056051;28;20025;-36
2023/08/18 12:01:02;;;;;;;16.00;10.05;;;;;;;;;;5055747;28;20353;-35
2023/08/18 12:03:28;;;;;;;15.07;11.15;;;;;;;;;;5055433;28;20020;-35
2023/08/18 12:05:54;;;;;;;12.35;9.27;;;;;;;;;;5055723;28;20021;-35
2023/08/18 12:08:20;;;;;;;12.95;9.93;;;;;;;;;;5054168;28;20066;-35
2023/08/18 12:10:48;;;;;;;14.98;10.75;;;;;;;;;;5054967;28;20496;-34
2023/08/18 12:13:13;;;;;;;13.30;9.80;;;;;;;;;;5055568;28;20041;-35
2023/08/18 12:15:38;;;;;;;13.68;9.60;;;;;;;;;;5055351;28;20028;-35
2023/08/18 12:18:03;;;;;;;13.07;9.80;;;;;;;;;;5055229;28;20021;-35
2023/08/18 12:20:29;;;;;;;12.98;9.13;;;;;;;;;;5055500;28;20028;-35
2023/08/18 12:22:54;;;;;;;13.10;9.80;;;;;;;;;;5055408;28;20028;-35
2023/08/18 12:25:20;;;;;;;15.15;9.30;;;;;;;;;;5055336;28;20380;-36
2023/08/18 12:27:46;;;;;;;14.75;10.80;;;;;;;;;;5055298;28;20013;-35
2023/08/18 12:30:11;;;;;;;13.10;9.68;;;;;;;;;;5054660;28;20021;-35
2023/08/18 12:32:36;;;;;;;13.95;9.77;;;;;;;;;;5054909;28;20025;-35
2023/08/18 12:35:01;;;;;;;14.20;9.83;;;;;;;;;;5054936;28;20017;-35
2023/08/18 12:37:27;;;;;;;13.83;10.67;;;;;;;;;;5055321;28;20088;-35
2023/08/18 12:39:53;;;;;;;13.85;9.10;;;;;;;;;;5054920;28;20024;-35
2023/08/18 12:42:18;;;;;;;14.93;10.05;;;;;;;;;;5055013;28;20013;-35
2023/08/18 12:44:43;;;;;;;16.83;10.15;;;;;;;;;;5054985;28;20021;-35
2023/08/18 12:47:08;;;;;;;14.63;9.23;;;;;;;;;;5054676;28;20376;-35
2023/08/18 12:49:34;;;;;;;15.07;9.77;;;;;;;;;;5054553;28;20017;-35
2023/08/18 12:51:59;;;;;;;15.27;9.33;;;;;;;;;;5054900;28;20021;-35
2023/08/18 12:54:25;;;;;;;14.20;8.65;;;;;;;;;;5054530;28;20147;-35
2023/08/18 12:56:50;;;;;;;22.63;8.50;;;;;;;;;;5055046;28;20100;-36
2023/08/18 12:59:15;;;;;;;12.00;8.37;;;;;;;;;;5055153;28;20013;-36
2023/08/18 13:01:40;;;;;;;15.50;8.90;;;;;;;;;;5054385;28;20512;-34
2023/08/18 13:04:10;;;;;;;12.93;9.20;;;;;;;;;;5054418;28;20016;-35
2023/08/18 13:06:35;;;;;;;10.63;7.50;;;;;;;;;;5054513;28;20270;-35
2023/08/18 13:09:00;;;;;;;14.35;7.90;;;;;;;;;;5054515;28;20455;-35
2023/08/18 13:11:26;;;;;;;12.10;8.20;;;;;;;;;;5054039;28;20040;-35
2023/08/18 13:13:51;;;;;;;11.23;8.13;;;;;;;;;;5054708;28;20017;-35
2023/08/18 13:16:16;;;;;;;10.97;7.23;;;;;;;;;;5054049;28;20021;-35
2023/08/18 13:18:41;;;;;;;12.00;8.60;;;;;;;;;;5053958;28;20479;-35
2023/08/18 13:21:08;;;;;;;12.55;7.95;;;;;;;;;;5053881;28;20062;-35
2023/08/18 13:23:34;;;;;;;15.02;7.53;;;;;;;;;;5053918;28;20059;-34
2023/08/18 13:25:59;;;;;;;8.80;6.93;;;;;;;;;;5053961;28;20553;-35
2023/08/18 13:28:24;;;;;;;13.97;7.83;;;;;;;;;;5054310;28;20021;-34
2023/08/18 13:30:49;;;;;;;12.17;6.77;;;;;;;;;;5053786;28;20384;-35
2023/08/18 13:33:14;;;;;;;11.73;6.80;;;;;;;;;;5053766;28;20021;-35
2023/08/18 13:35:39;;;;;;;10.20;6.83;;;;;;;;;;5054023;28;20028;-35
2023/08/18 13:38:05;;;;;;;9.27;5.73;;;;;;;;;;5053707;28;20582;-35
2023/08/18 13:40:30;;;;;;;15.83;8.57;;;;;;;;;;5054208;28;20029;-34
2023/08/18 13:42:56;;;;;;;11.43;7.40;;;;;;;;;;5053944;28;20051;-35
2023/08/18 13:45:21;;;;;;;8.95;5.90;;;;;;;;;;5053579;28;20017;-35
2023/08/18 13:47:46;;;;;;;7.68;5.70;;;;;;;;;;5053801;28;20024;-36
2023/08/18 13:50:12;;;;;;;9.33;6.40;;;;;;;;;;5054110;28;20100;-35
2023/08/18 13:52:37;;;;;;;7.83;5.93;;;;;;;;;;5053436;28;20606;-35
2023/08/18 13:55:03;;;;;;;9.10;5.40;;;;;;;;;;5053738;28;20195;-35
2023/08/18 13:57:28;;;;;;;7.35;4.43;;;;;;;;;;5053622;28;20107;-36
2023/08/18 13:59:53;;;;;;;5.88;4.13;;;;;;;;;;5053300;28;20020;-36
2023/08/18 14:02:18;;;;;;;7.87;4.63;;;;;;;;;;5053909;28;20009;-36
2023/08/18 14:04:44;;;;;;;9.67;4.47;;;;;;;;;;5053879;28;20044;-36
2023/08/18 14:07:10;;;;;;;9.30;5.60;;;;;;;;;;5053319;28;20274;-36
2023/08/18 14:09:35;;;;;;;8.82;5.80;;;;;;;;;;5053259;28;20025;-36
2023/08/18 14:12:01;;;;;;;9.23;4.13;;;;;;;;;;5053269;28;20048;-36
2023/08/18 14:14:26;;;;;;;6.68;4.20;;;;;;;;;;5053369;28;20055;-36
2023/08/18 14:16:51;;;;;;;9.77;4.57;;;;;;;;;;5053906;28;20017;-36